createdAt,value
2018-08-28T00:00:06.888Z,52.08
2018-08-28T00:02:33.224Z,52.18
2018-08-28T00:04:59.556Z,51.93
2018-08-28T00:07:25.911Z,52.12
2018-08-28T00:09:52.254Z,52.09
2018-08-28T00:12:18.748Z,51.99
2018-08-28T00:14:45.122Z,52.10
2018-08-28T00:17:11.528Z,51.91
2018-08-28T00:19:37.797Z,52.15
2018-08-28T00:22:04.200Z,52.03
2018-08-28T00:24:30.638Z,51.74
2018-08-28T00:26:56.975Z,52.09
2018-08-28T00:29:23.328Z,52.20
2018-08-28T00:31:49.790Z,52.10
2018-08-28T00:34:16.166Z,52.04
2018-08-28T00:36:42.513Z,52.14
2018-08-28T00:39:08.848Z,52.08
2018-08-28T00:41:35.187Z,52.11
2018-08-28T00:44:01.584Z,52.12
2018-08-28T00:46:27.934Z,52.00
2018-08-28T00:48:54.267Z,51.96
2018-08-28T00:51:20.681Z,52.10
2018-08-28T00:53:47.038Z,52.03
2018-08-28T00:56:13.414Z,52.12
2018-08-28T00:58:39.745Z,52.18
2018-08-28T01:01:06.111Z,52.25
2018-08-28T01:03:32.441Z,52.00
2018-08-28T01:05:58.775Z,52.30
2018-08-28T01:08:25.103Z,52.43
2018-08-28T01:10:51.448Z,52.77
2018-08-28T01:13:17.807Z,52.60
2018-08-28T01:15:44.136Z,52.74
2018-08-28T01:18:10.484Z,52.75
2018-08-28T01:20:36.867Z,52.87
2018-08-28T01:23:03.234Z,52.91
2018-08-28T01:25:29.625Z,53.07
2018-08-28T01:27:55.960Z,52.97
2018-08-28T01:30:22.380Z,52.96
2018-08-28T01:32:48.759Z,53.24
2018-08-28T01:35:15.087Z,53.04
2018-08-28T01:37:41.486Z,53.21
2018-08-28T01:40:07.858Z,53.05
2018-08-28T01:42:34.269Z,53.20
2018-08-28T01:45:00.599Z,53.33
2018-08-28T01:47:26.945Z,53.30
2018-08-28T01:49:53.321Z,53.21
2018-08-28T01:52:19.673Z,53.26
2018-08-28T01:54:46.055Z,53.04
2018-08-28T01:57:12.391Z,53.18
2018-08-28T01:59:38.872Z,53.13
2018-08-28T02:02:05.257Z,53.22
2018-08-28T02:04:31.632Z,53.24
2018-08-28T02:06:58.029Z,53.10
2018-08-28T02:09:24.358Z,53.10
2018-08-28T02:11:50.698Z,53.01
2018-08-28T02:14:17.033Z,53.01
2018-08-28T02:16:43.414Z,53.06
2018-08-28T02:19:09.755Z,53.16
2018-08-28T02:21:36.148Z,52.95
2018-08-28T02:24:02.516Z,52.87
2018-08-28T02:26:28.887Z,53.01
2018-08-28T02:28:55.263Z,53.07
2018-08-28T02:31:21.646Z,53.06
2018-08-28T02:33:48.021Z,53.15
2018-08-28T02:36:14.357Z,53.04
2018-08-28T02:38:40.675Z,52.99
2018-08-28T02:41:07.077Z,52.99
2018-08-28T02:43:33.428Z,52.96
2018-08-28T02:45:59.758Z,53.05
2018-08-28T02:48:26.125Z,53.07
2018-08-28T02:50:52.463Z,53.08
2018-08-28T02:53:18.891Z,53.09
2018-08-28T02:55:45.249Z,53.02
2018-08-28T02:58:11.635Z,53.10
2018-08-28T03:00:37.958Z,53.02
2018-08-28T03:03:04.342Z,53.16
2018-08-28T03:05:30.685Z,53.23
2018-08-28T03:07:57.013Z,53.01
2018-08-28T03:10:23.404Z,53.04
2018-08-28T03:12:49.725Z,52.92
2018-08-28T03:15:16.050Z,52.81
2018-08-28T03:17:42.396Z,52.81
2018-08-28T03:20:08.770Z,52.82
2018-08-28T03:22:35.099Z,52.59
2018-08-28T03:25:01.465Z,52.40
2018-08-28T03:27:27.809Z,52.40
2018-08-28T03:29:54.239Z,52.28
2018-08-28T03:32:20.640Z,52.44
2018-08-28T03:34:46.997Z,52.29
2018-08-28T03:37:13.367Z,52.23
2018-08-28T03:39:39.757Z,52.21
2018-08-28T03:42:06.084Z,52.15
2018-08-28T03:44:32.495Z,52.10
2018-08-28T03:46:58.913Z,52.18
2018-08-28T03:49:25.248Z,52.10
2018-08-28T03:51:51.581Z,52.14
2018-08-28T03:54:17.904Z,52.14
2018-08-28T03:56:44.272Z,52.09
2018-08-28T03:59:10.594Z,52.13
2018-08-28T04:01:36.960Z,52.02
2018-08-28T04:04:03.295Z,52.11
2018-08-28T04:06:29.667Z,52.02
2018-08-28T04:08:55.995Z,52.07
2018-08-28T04:11:22.427Z,52.06
2018-08-28T04:13:48.859Z,51.93
2018-08-28T04:16:15.223Z,52.06
2018-08-28T04:18:41.553Z,52.03
2018-08-28T04:21:08.082Z,52.23
2018-08-28T04:23:34.399Z,51.99
2018-08-28T04:26:00.764Z,51.95
2018-08-28T04:28:27.096Z,52.11
2018-08-28T04:30:53.465Z,52.00
2018-08-28T04:33:19.807Z,51.93
2018-08-28T04:35:46.152Z,51.94
2018-08-28T04:38:12.504Z,51.84
2018-08-28T04:40:38.863Z,51.87
2018-08-28T04:43:05.240Z,51.86
2018-08-28T04:45:31.566Z,51.92
2018-08-28T04:47:57.931Z,51.89
2018-08-28T04:50:24.294Z,51.89
2018-08-28T04:52:50.628Z,51.87
2018-08-28T04:55:17.087Z,51.74
2018-08-28T04:57:43.518Z,51.71
2018-08-28T05:00:09.916Z,51.67
2018-08-28T05:02:36.384Z,51.76
2018-08-28T05:05:02.761Z,51.70
2018-08-28T05:07:29.135Z,51.73
2018-08-28T05:09:55.495Z,51.83
2018-08-28T05:12:21.891Z,51.72
2018-08-28T05:14:48.288Z,51.68
2018-08-28T05:17:14.686Z,51.71
2018-08-28T05:19:41.060Z,51.59
2018-08-28T05:22:07.489Z,51.73
2018-08-28T05:24:33.818Z,51.70
2018-08-28T05:27:00.216Z,51.59
2018-08-28T05:29:26.625Z,51.67
2018-08-28T05:31:53.014Z,51.79
2018-08-28T05:34:19.345Z,51.72
2018-08-28T05:36:45.743Z,51.61
2018-08-28T05:39:12.099Z,51.56
2018-08-28T05:41:38.488Z,51.73
2018-08-28T05:44:04.835Z,51.69
2018-08-28T05:46:31.167Z,51.60
2018-08-28T05:48:57.636Z,51.79
2018-08-28T05:51:23.962Z,51.81
2018-08-28T05:53:50.306Z,51.62
2018-08-28T05:56:16.776Z,51.67
2018-08-28T05:58:43.159Z,51.63
2018-08-28T06:01:09.650Z,51.77
2018-08-28T06:03:36.171Z,51.71
2018-08-28T06:06:02.560Z,51.89
2018-08-28T06:08:29.118Z,51.78
2018-08-28T06:10:55.497Z,51.78
2018-08-28T06:13:21.958Z,51.86
2018-08-28T06:15:48.435Z,51.63
2018-08-28T06:18:14.854Z,51.71
2018-08-28T06:20:41.203Z,51.77
2018-08-28T06:23:07.786Z,51.76
2018-08-28T06:25:34.159Z,52.27
2018-08-28T06:28:00.569Z,51.92
2018-08-28T06:30:26.991Z,51.74
2018-08-28T06:32:53.355Z,51.32
2018-08-28T06:35:19.787Z,51.27
2018-08-28T06:37:46.118Z,51.58
2018-08-28T06:40:12.513Z,51.44
2018-08-28T06:42:38.880Z,51.61
2018-08-28T06:45:05.321Z,51.57
2018-08-28T06:47:31.815Z,51.55
2018-08-28T06:49:58.226Z,51.55
2018-08-28T06:52:24.573Z,51.37
2018-08-28T06:54:50.923Z,51.53
2018-08-28T06:57:17.348Z,51.40
2018-08-28T06:59:43.822Z,51.45
2018-08-28T07:02:10.259Z,51.54
2018-08-28T07:04:36.687Z,51.51
2018-08-28T07:07:03.124Z,51.56
2018-08-28T07:09:29.531Z,51.47
2018-08-28T07:11:55.869Z,51.25
2018-08-28T07:14:22.239Z,51.35
2018-08-28T07:16:48.566Z,51.33
2018-08-28T07:19:14.949Z,51.62
2018-08-28T07:21:41.330Z,51.26
2018-08-28T07:24:07.662Z,51.42
2018-08-28T07:26:34.054Z,51.25
2018-08-28T07:29:00.397Z,51.53
2018-08-28T07:31:26.869Z,51.29
2018-08-28T07:33:53.165Z,51.23
2018-08-28T07:36:19.592Z,51.20
2018-08-28T07:38:45.999Z,51.17
2018-08-28T07:41:12.988Z,51.42
2018-08-28T07:43:39.519Z,51.32
2018-08-28T07:46:05.900Z,51.25
2018-08-28T07:48:32.378Z,51.21
2018-08-28T07:50:58.721Z,51.20
2018-08-28T07:53:25.128Z,50.93
2018-08-28T07:55:51.473Z,51.24
2018-08-28T07:58:17.904Z,51.15
2018-08-28T08:00:44.273Z,50.93
2018-08-28T08:03:10.632Z,51.18
2018-08-28T08:05:37.061Z,51.14
2018-08-28T08:08:03.416Z,51.12
2018-08-28T08:10:29.860Z,51.03
2018-08-28T08:12:56.360Z,50.97
2018-08-28T08:15:22.782Z,51.10
2018-08-28T08:17:49.208Z,50.98
2018-08-28T08:20:15.720Z,51.02
2018-08-28T08:22:42.085Z,51.01
2018-08-28T08:25:08.554Z,51.09
2018-08-28T08:27:34.979Z,50.98
2018-08-28T08:30:01.328Z,50.90
2018-08-28T08:32:27.718Z,51.03
2018-08-28T08:34:54.072Z,50.97
2018-08-28T08:37:20.516Z,50.95
2018-08-28T08:39:46.933Z,51.08
2018-08-28T08:42:13.383Z,51.03
2018-08-28T08:44:39.762Z,51.11
2018-08-28T08:47:06.128Z,50.98
2018-08-28T08:49:32.459Z,50.89
2018-08-28T08:51:58.795Z,50.77
2018-08-28T08:54:25.213Z,50.91
2018-08-28T08:56:51.661Z,51.02
2018-08-28T08:59:18.072Z,51.00
2018-08-28T09:01:44.456Z,50.89
2018-08-28T09:04:10.931Z,50.82
2018-08-28T09:06:37.274Z,50.74
2018-08-28T09:09:03.649Z,50.81
2018-08-28T09:11:30.013Z,50.78
2018-08-28T09:13:56.371Z,50.73
2018-08-28T09:16:22.772Z,50.88
2018-08-28T09:18:49.101Z,50.59
2018-08-28T09:21:15.491Z,50.87
2018-08-28T09:23:41.857Z,50.72
2018-08-28T09:26:08.192Z,50.78
2018-08-28T09:28:34.556Z,50.62
2018-08-28T09:31:01.008Z,50.68
2018-08-28T09:33:27.364Z,50.59
2018-08-28T09:35:53.763Z,50.69
2018-08-28T09:38:20.104Z,50.65
2018-08-28T09:40:46.439Z,50.58
2018-08-28T09:43:12.761Z,50.76
2018-08-28T09:45:39.176Z,50.74
2018-08-28T09:48:05.621Z,50.54
2018-08-28T09:50:31.967Z,50.59
2018-08-28T09:52:58.353Z,50.44
2018-08-28T09:55:24.686Z,50.61
2018-08-28T09:57:51.043Z,50.65
2018-08-28T10:00:17.368Z,50.66
2018-08-28T10:02:43.755Z,50.70
2018-08-28T10:05:10.095Z,50.64
2018-08-28T10:07:36.474Z,50.88
2018-08-28T10:10:02.865Z,50.83
2018-08-28T10:12:29.228Z,50.77
2018-08-28T10:14:55.559Z,50.79
2018-08-28T10:17:21.963Z,50.72
2018-08-28T10:19:48.268Z,50.77
2018-08-28T10:22:14.649Z,50.76
2018-08-28T10:24:41.088Z,50.77
2018-08-28T10:27:07.489Z,50.82
2018-08-28T10:29:33.843Z,50.70
2018-08-28T10:32:00.244Z,50.78
2018-08-28T10:34:26.589Z,50.76
2018-08-28T10:36:53.674Z,50.72
2018-08-28T10:39:20.045Z,50.72
2018-08-28T10:41:46.526Z,50.74
2018-08-28T10:44:12.861Z,50.72
2018-08-28T10:46:39.307Z,50.68
2018-08-28T10:49:05.721Z,50.76
2018-08-28T10:51:32.156Z,50.68
2018-08-28T10:53:58.525Z,50.74
2018-08-28T10:56:24.877Z,50.78
2018-08-28T10:58:51.351Z,50.68
2018-08-28T11:01:17.580Z,50.77
2018-08-28T11:03:43.917Z,50.71
2018-08-28T11:06:10.251Z,50.61
2018-08-28T11:08:36.618Z,50.80
2018-08-28T11:11:03.004Z,50.82
2018-08-28T11:13:29.356Z,50.80
2018-08-28T11:15:55.879Z,50.63
2018-08-28T11:18:22.199Z,50.83
2018-08-28T11:20:48.597Z,51.06
2018-08-28T11:23:14.959Z,51.13
2018-08-28T11:25:41.306Z,50.74
2018-08-28T11:28:07.655Z,50.72
2018-08-28T11:30:34.058Z,50.80
2018-08-28T11:33:00.425Z,50.81
2018-08-28T11:35:26.829Z,51.19
2018-08-28T11:37:53.225Z,50.99
2018-08-28T11:40:19.620Z,51.20
2018-08-28T11:42:45.955Z,51.12
2018-08-28T11:45:12.407Z,51.29
2018-08-28T11:47:38.890Z,51.30
2018-08-28T11:50:05.224Z,51.27
2018-08-28T11:52:31.644Z,51.31
2018-08-28T11:54:58.017Z,51.14
2018-08-28T11:57:24.405Z,50.78
2018-08-28T11:59:50.744Z,51.27
2018-08-28T12:02:17.091Z,51.40
2018-08-28T12:04:43.428Z,51.30
2018-08-28T12:07:09.835Z,51.39
2018-08-28T12:09:36.231Z,51.23
2018-08-28T12:12:02.597Z,51.11
2018-08-28T12:14:29.137Z,51.30
2018-08-28T12:16:55.476Z,51.28
2018-08-28T12:19:21.831Z,51.34
2018-08-28T12:21:48.161Z,51.33
2018-08-28T12:24:14.521Z,51.30
2018-08-28T12:26:40.927Z,51.07
2018-08-28T12:29:07.278Z,51.31
2018-08-28T12:31:33.771Z,51.19
2018-08-28T12:34:00.123Z,51.33
2018-08-28T12:36:26.569Z,51.17
2018-08-28T12:38:53.091Z,51.27
2018-08-28T12:41:19.481Z,51.33
2018-08-28T12:43:45.923Z,51.28
2018-08-28T12:46:12.352Z,51.16
2018-08-28T12:48:38.752Z,51.33
2018-08-28T12:51:05.194Z,51.41
2018-08-28T12:53:31.478Z,51.34
2018-08-28T12:55:57.976Z,51.31
2018-08-28T12:58:24.305Z,51.28
2018-08-28T13:00:50.681Z,50.99
2018-08-28T13:03:17.134Z,51.12
2018-08-28T13:05:43.545Z,50.82
2018-08-28T13:08:10.014Z,50.74
2018-08-28T13:10:36.407Z,50.73
2018-08-28T13:13:02.803Z,50.67
2018-08-28T13:15:29.332Z,51.00
2018-08-28T13:17:55.681Z,50.77
2018-08-28T13:20:22.067Z,50.75
2018-08-28T13:22:48.440Z,50.59
2018-08-28T13:25:14.852Z,50.55
2018-08-28T13:27:41.273Z,50.47
2018-08-28T13:30:07.666Z,50.40
2018-08-28T13:32:34.028Z,50.48
2018-08-28T13:35:00.382Z,50.17
2018-08-28T13:37:26.815Z,50.17
2018-08-28T13:39:53.193Z,50.01
2018-08-28T13:42:19.633Z,50.11
2018-08-28T13:44:46.087Z,49.76
2018-08-28T13:47:12.619Z,49.49
2018-08-28T13:49:38.925Z,49.64
2018-08-28T13:52:05.284Z,49.68
2018-08-28T13:54:31.690Z,49.31
2018-08-28T13:56:58.020Z,49.37
2018-08-28T13:59:24.411Z,49.52
2018-08-28T14:01:50.793Z,49.46
2018-08-28T14:04:17.296Z,49.54
2018-08-28T14:06:43.680Z,49.17
2018-08-28T14:09:10.073Z,49.29
2018-08-28T14:11:36.574Z,49.01
2018-08-28T14:14:03.064Z,49.07
2018-08-28T14:16:29.508Z,48.93
2018-08-28T14:18:55.898Z,48.92
2018-08-28T14:21:22.236Z,48.81
2018-08-28T14:23:48.650Z,48.70
2018-08-28T14:26:15.028Z,48.50
2018-08-28T14:28:41.535Z,48.15
2018-08-28T14:31:07.889Z,48.44
2018-08-28T14:33:34.280Z,48.00
2018-08-28T14:36:00.625Z,48.13
2018-08-28T14:38:27.050Z,47.98
2018-08-28T14:40:53.425Z,48.21
2018-08-28T14:43:19.781Z,47.92
2018-08-28T14:45:46.149Z,48.04
2018-08-28T14:48:12.508Z,47.68
2018-08-28T14:50:38.843Z,47.55
2018-08-28T14:53:05.256Z,47.72
2018-08-28T14:55:31.607Z,47.81
2018-08-28T14:57:58.019Z,47.68
2018-08-28T15:00:24.369Z,47.66
2018-08-28T15:02:50.756Z,47.55
2018-08-28T15:05:17.134Z,47.48
2018-08-28T15:07:43.497Z,47.66
2018-08-28T15:10:09.890Z,47.53
2018-08-28T15:12:36.308Z,47.43
2018-08-28T15:15:02.654Z,47.35
2018-08-28T15:17:29.056Z,47.44
2018-08-28T15:19:55.388Z,47.64
2018-08-28T15:22:21.984Z,47.32
2018-08-28T15:24:48.349Z,47.34
2018-08-28T15:27:14.828Z,47.29
2018-08-28T15:29:41.086Z,47.40
2018-08-28T15:32:07.451Z,47.25
2018-08-28T15:34:33.822Z,47.32
2018-08-28T15:37:00.252Z,47.33
2018-08-28T15:39:26.654Z,47.50
2018-08-28T15:41:53.044Z,47.18
2018-08-28T15:44:19.384Z,47.33
2018-08-28T15:46:45.784Z,47.40
2018-08-28T15:49:12.223Z,47.46
2018-08-28T15:51:38.740Z,47.42
2018-08-28T15:54:05.006Z,47.45
2018-08-28T15:56:31.371Z,47.60
2018-08-28T15:58:57.761Z,47.57
2018-08-28T16:01:24.067Z,47.43
2018-08-28T16:03:50.399Z,47.50
2018-08-28T16:06:16.764Z,47.55
2018-08-28T16:08:43.099Z,47.68
2018-08-28T16:11:09.460Z,47.45
2018-08-28T16:13:35.851Z,47.53
2018-08-28T16:16:02.187Z,47.62
2018-08-28T16:18:28.551Z,47.59
2018-08-28T16:20:54.889Z,47.61
2018-08-28T16:23:21.225Z,47.60
2018-08-28T16:25:47.581Z,47.72
2018-08-28T16:28:13.919Z,47.80
2018-08-28T16:30:40.265Z,47.77
2018-08-28T16:33:06.604Z,47.78
2018-08-28T16:35:32.991Z,47.80
2018-08-28T16:37:59.337Z,47.94
2018-08-28T16:40:25.688Z,47.82
2018-08-28T16:42:52.074Z,47.93
2018-08-28T16:45:18.393Z,48.00
2018-08-28T16:47:44.766Z,48.18
2018-08-28T16:50:11.155Z,48.29
2018-08-28T16:52:37.512Z,48.38
2018-08-28T16:55:03.842Z,48.60
2018-08-28T16:57:30.193Z,48.59
2018-08-28T16:59:56.534Z,48.63
2018-08-28T17:02:22.947Z,48.65
2018-08-28T17:04:49.277Z,49.00
2018-08-28T17:07:15.645Z,48.82
2018-08-28T17:09:42.032Z,48.80
2018-08-28T17:12:08.518Z,48.89
2018-08-28T17:14:34.885Z,48.77
2018-08-28T17:17:01.265Z,48.89
2018-08-28T17:19:27.676Z,48.99
2018-08-28T17:21:54.118Z,48.95
2018-08-28T17:24:20.458Z,48.90
2018-08-28T17:26:46.820Z,48.97
2018-08-28T17:29:13.168Z,48.94
2018-08-28T17:31:39.596Z,48.93
2018-08-28T17:34:05.969Z,49.09
2018-08-28T17:36:32.315Z,49.14
2018-08-28T17:38:58.667Z,49.20
2018-08-28T17:41:25.031Z,49.20
2018-08-28T17:43:51.428Z,49.24
2018-08-28T17:46:17.763Z,49.24
2018-08-28T17:48:44.178Z,49.25
2018-08-28T17:51:10.524Z,49.27
2018-08-28T17:53:36.862Z,49.31
2018-08-28T17:56:03.196Z,49.30
2018-08-28T17:58:29.552Z,49.35
2018-08-28T18:00:55.952Z,49.35
2018-08-28T18:03:22.316Z,49.37
2018-08-28T18:05:48.663Z,49.36
2018-08-28T18:08:15.001Z,49.41
2018-08-28T18:10:41.469Z,49.42
2018-08-28T18:13:07.912Z,49.44
2018-08-28T18:15:34.360Z,49.38
2018-08-28T18:18:00.689Z,49.43
2018-08-28T18:20:27.046Z,49.42
2018-08-28T18:22:53.410Z,49.49
2018-08-28T18:25:19.814Z,49.43
2018-08-28T18:27:46.176Z,49.42
2018-08-28T18:30:12.614Z,49.47
2018-08-28T18:32:38.993Z,49.43
2018-08-28T18:35:05.352Z,49.44
2018-08-28T18:37:31.732Z,49.42
2018-08-28T18:39:58.061Z,49.41
2018-08-28T18:42:24.451Z,49.46
2018-08-28T18:44:50.808Z,49.50
2018-08-28T18:47:17.207Z,49.49
2018-08-28T18:49:43.541Z,49.53
2018-08-28T18:52:09.881Z,49.52
2018-08-28T18:54:36.258Z,49.61
2018-08-28T18:57:02.584Z,49.61
2018-08-28T18:59:28.914Z,49.63
2018-08-28T19:01:55.252Z,49.65
2018-08-28T19:04:21.614Z,49.70
2018-08-28T19:06:47.944Z,49.80
2018-08-28T19:09:14.339Z,49.82
2018-08-28T19:11:40.664Z,49.79
2018-08-28T19:14:06.997Z,49.94
2018-08-28T19:16:33.325Z,49.97
2018-08-28T19:18:59.711Z,50.00
2018-08-28T19:21:26.061Z,50.05
2018-08-28T19:23:52.423Z,50.15
2018-08-28T19:26:18.769Z,50.23
2018-08-28T19:28:45.181Z,50.30
2018-08-28T19:31:11.516Z,50.37
2018-08-28T19:33:37.879Z,50.29
2018-08-28T19:36:04.205Z,50.35
2018-08-28T19:38:30.583Z,50.51
2018-08-28T19:40:56.910Z,50.56
2018-08-28T19:43:23.317Z,50.55
2018-08-28T19:45:49.700Z,50.64
2018-08-28T19:48:16.073Z,50.58
2018-08-28T19:50:42.411Z,50.67
2018-08-28T19:53:08.788Z,50.75
2018-08-28T19:55:35.116Z,50.87
2018-08-28T19:58:01.499Z,50.88
2018-08-28T20:00:27.830Z,50.85
2018-08-28T20:02:54.163Z,50.88
2018-08-28T20:05:20.488Z,51.03
2018-08-28T20:07:46.849Z,51.01
2018-08-28T20:10:13.183Z,51.14
2018-08-28T20:12:39.552Z,51.09
2018-08-28T20:15:05.881Z,50.94
2018-08-28T20:17:32.208Z,51.05
2018-08-28T20:19:58.582Z,51.09
2018-08-28T20:22:24.910Z,51.29
2018-08-28T20:24:51.229Z,51.27
2018-08-28T20:27:17.570Z,51.42
2018-08-28T20:29:43.932Z,51.35
2018-08-28T20:32:10.267Z,51.31
2018-08-28T20:34:36.669Z,51.41
2018-08-28T20:37:03.000Z,51.39
2018-08-28T20:39:29.360Z,51.47
2018-08-28T20:41:55.724Z,51.57
2018-08-28T20:44:22.050Z,51.45
2018-08-28T20:46:48.381Z,51.52
2018-08-28T20:49:14.712Z,51.49
2018-08-28T20:51:41.045Z,51.51
2018-08-28T20:54:07.371Z,51.80
2018-08-28T20:56:33.719Z,51.61
2018-08-28T20:59:00.576Z,51.62
2018-08-28T21:01:26.906Z,51.49
2018-08-28T21:03:53.274Z,51.74
2018-08-28T21:06:19.623Z,51.74
2018-08-28T21:08:45.973Z,51.76
2018-08-28T21:11:12.439Z,51.76
2018-08-28T21:13:38.808Z,51.75
2018-08-28T21:16:05.133Z,51.86
2018-08-28T21:18:31.499Z,51.77
2018-08-28T21:20:57.971Z,51.75
2018-08-28T21:23:24.336Z,51.80
2018-08-28T21:25:50.664Z,52.00
2018-08-28T21:28:16.996Z,51.96
2018-08-28T21:30:43.316Z,51.88
2018-08-28T21:33:09.862Z,51.91
2018-08-28T21:35:36.223Z,51.90
2018-08-28T21:38:02.615Z,51.74
2018-08-28T21:40:28.951Z,52.10
2018-08-28T21:42:55.284Z,51.90
2018-08-28T21:45:21.619Z,52.14
2018-08-28T21:47:48.023Z,52.15
2018-08-28T21:50:14.364Z,52.09
2018-08-28T21:52:40.764Z,52.00
2018-08-28T21:55:07.127Z,52.08
2018-08-28T21:57:33.516Z,52.27
2018-08-28T21:59:59.849Z,52.23
2018-08-28T22:02:26.188Z,52.19
2018-08-28T22:04:52.511Z,52.30
2018-08-28T22:07:18.862Z,52.35
2018-08-28T22:09:45.244Z,52.34
2018-08-28T22:12:11.568Z,52.40
2018-08-28T22:14:37.940Z,52.37
2018-08-28T22:17:04.276Z,52.45
2018-08-28T22:19:30.630Z,52.40
2018-08-28T22:21:56.958Z,52.38
2018-08-28T22:24:23.315Z,52.52
2018-08-28T22:26:49.655Z,52.57
2018-08-28T22:29:15.980Z,52.57
2018-08-28T22:31:42.303Z,52.64
2018-08-28T22:34:08.639Z,52.52
2018-08-28T22:36:34.971Z,52.66
2018-08-28T22:39:01.304Z,52.49
2018-08-28T22:41:27.663Z,52.57
2018-08-28T22:43:54.046Z,52.58
2018-08-28T22:46:20.605Z,52.65
2018-08-28T22:48:46.941Z,52.61
2018-08-28T22:51:13.299Z,52.51
2018-08-28T22:53:39.624Z,52.75
2018-08-28T22:56:05.959Z,52.48
2018-08-28T22:58:32.330Z,52.55
2018-08-28T23:00:58.672Z,52.57
2018-08-28T23:03:25.007Z,52.57
2018-08-28T23:05:51.319Z,52.71
2018-08-28T23:08:17.690Z,52.50
2018-08-28T23:10:44.018Z,52.50
2018-08-28T23:13:10.418Z,52.74
2018-08-28T23:15:36.748Z,52.67
2018-08-28T23:18:03.091Z,52.65
2018-08-28T23:20:29.410Z,52.71
2018-08-28T23:22:55.738Z,52.59
2018-08-28T23:25:22.169Z,52.66
2018-08-28T23:27:48.508Z,52.61
2018-08-28T23:30:14.839Z,52.81
2018-08-28T23:32:41.195Z,52.64
2018-08-28T23:35:07.531Z,52.70
2018-08-28T23:37:33.868Z,52.65
2018-08-28T23:40:00.228Z,52.67
2018-08-28T23:42:26.583Z,52.62
2018-08-28T23:44:52.948Z,52.59
2018-08-28T23:47:19.410Z,52.64
2018-08-28T23:49:45.736Z,52.67
2018-08-28T23:52:12.116Z,52.70
2018-08-28T23:54:38.448Z,52.60
2018-08-28T23:57:04.811Z,52.64
2018-08-28T23:59:31.131Z,52.67
